createdAt,value
2018-09-13T00:04:11.308Z,5.28
2018-09-13T00:09:15.409Z,5.87
2018-09-13T00:14:19.563Z,5.28
2018-09-13T00:19:23.797Z,5.58
2018-09-13T00:24:27.887Z,4.80
2018-09-13T00:29:32.088Z,5.78
2018-09-13T00:39:30.606Z,3.85
2018-09-13T00:44:34.678Z,5.17
2018-09-13T00:49:38.798Z,5.42
2018-09-13T00:54:42.872Z,5.70
2018-09-13T00:59:47.063Z,5.85
2018-09-13T01:04:51.143Z,6.33
2018-09-13T01:09:55.182Z,6.87
2018-09-13T01:15:00.449Z,6.45
2018-09-13T01:20:04.993Z,5.75
2018-09-13T01:25:09.131Z,6.45
2018-09-13T01:30:13.225Z,6.25
2018-09-13T01:35:17.355Z,7.20
2018-09-13T01:40:21.570Z,6.42
2018-09-13T01:45:25.743Z,7.00
2018-09-13T01:50:29.819Z,6.30
2018-09-13T01:55:33.900Z,7.37
2018-09-13T02:00:37.936Z,6.90
2018-09-13T02:05:42.104Z,6.37
2018-09-13T02:10:46.368Z,7.62
2018-09-13T02:15:53.612Z,7.40
2018-09-13T02:20:57.774Z,7.20
2018-09-13T02:26:01.877Z,7.20
2018-09-13T02:31:06.579Z,6.62
2018-09-13T02:36:30.325Z,6.75
2018-09-13T02:41:34.512Z,6.83
2018-09-13T02:46:39.231Z,6.78
2018-09-13T02:51:43.948Z,6.55
2018-09-13T02:56:48.187Z,6.58
2018-09-13T03:01:52.305Z,6.70
2018-09-13T03:06:56.388Z,6.83
2018-09-13T03:12:00.468Z,6.47
2018-09-13T03:17:04.595Z,6.47
2018-09-13T03:22:08.666Z,7.65
2018-09-13T03:27:12.939Z,7.62
2018-09-13T03:32:17.837Z,6.90
2018-09-13T03:37:21.871Z,7.78
2018-09-13T03:42:26.423Z,7.87
2018-09-13T03:47:31.020Z,7.17
2018-09-13T03:52:35.244Z,6.80
2018-09-13T03:57:39.658Z,7.70
2018-09-13T04:02:43.737Z,7.45
2018-09-13T04:07:47.832Z,8.15
2018-09-13T04:12:52.085Z,8.03
2018-09-13T04:17:56.199Z,8.08
2018-09-13T04:23:00.930Z,7.50
2018-09-13T04:28:05.065Z,8.65
2018-09-13T04:33:09.353Z,7.78
2018-09-13T04:38:13.574Z,11.43
2018-09-13T04:43:17.757Z,7.72
2018-09-13T04:48:22.062Z,8.50
2018-09-13T04:53:26.176Z,8.55
2018-09-13T04:58:30.299Z,8.05
2018-09-13T05:03:34.535Z,7.65
2018-09-13T05:08:38.845Z,7.95
2018-09-13T05:13:42.979Z,8.05
2018-09-13T05:18:47.429Z,7.97
2018-09-13T05:23:51.557Z,8.18
2018-09-13T05:28:55.708Z,8.25
2018-09-13T05:34:00.029Z,7.83
2018-09-13T05:39:06.025Z,8.53
2018-09-13T05:44:10.178Z,8.63
2018-09-13T05:49:14.368Z,8.40
2018-09-13T05:54:19.185Z,9.48
2018-09-13T05:59:24.913Z,9.05
2018-09-13T06:04:30.795Z,8.45
2018-09-13T06:09:35.060Z,8.38
2018-09-13T06:14:39.792Z,24.12
2018-09-13T06:19:44.920Z,8.35
2018-09-13T06:24:49.097Z,11.05
2018-09-13T06:29:56.008Z,8.15
2018-09-13T06:35:00.414Z,7.92
2018-09-13T06:40:04.701Z,6.53
2018-09-13T06:45:09.993Z,6.25
2018-09-13T06:50:14.133Z,5.60
2018-09-13T06:55:18.271Z,6.50
2018-09-13T07:00:22.591Z,5.40
2018-09-13T07:05:26.918Z,6.25
2018-09-13T07:10:31.096Z,5.78
2018-09-13T07:15:35.363Z,19.05
2018-09-13T07:20:39.528Z,5.42
2018-09-13T07:25:43.792Z,5.17
2018-09-13T07:30:49.120Z,5.65
2018-09-13T07:35:53.324Z,4.95
2018-09-13T07:40:57.552Z,5.33
2018-09-13T07:46:02.605Z,5.53
2018-09-13T07:51:06.899Z,5.28
2018-09-13T07:56:11.914Z,5.67
2018-09-13T08:01:16.665Z,4.72
2018-09-13T08:06:21.579Z,5.37
2018-09-13T08:11:26.773Z,4.97
2018-09-13T08:16:32.101Z,6.08
2018-09-13T08:21:36.219Z,6.22
2018-09-13T08:26:41.469Z,6.00
2018-09-13T08:31:46.090Z,6.37
2018-09-13T08:36:50.534Z,6.70
2018-09-13T08:41:55.377Z,6.70
2018-09-13T08:46:59.563Z,6.65
2018-09-13T08:52:04.395Z,7.17
2018-09-13T08:57:09.439Z,7.40
2018-09-13T09:02:13.532Z,7.62
2018-09-13T09:07:19.431Z,6.85
2018-09-13T09:12:25.537Z,6.78
2018-09-13T09:17:29.906Z,6.42
2018-09-13T09:22:42.369Z,7.10
2018-09-13T09:27:48.023Z,6.35
2018-09-13T09:32:52.286Z,6.20
2018-09-13T09:37:57.049Z,5.20
2018-09-13T09:43:01.708Z,5.12
2018-09-13T09:48:05.871Z,4.78
2018-09-13T09:53:10.011Z,5.37
2018-09-13T10:04:16.510Z,4.50
2018-09-13T10:09:22.209Z,4.33
2018-09-13T10:14:26.718Z,4.33
2018-09-13T10:19:37.323Z,2.70
2018-09-13T10:24:46.871Z,2.98
2018-09-13T10:29:57.605Z,2.90
2018-09-13T10:35:07.461Z,3.20
2018-09-13T10:40:17.300Z,3.47
2018-09-13T10:45:28.633Z,3.30
2018-09-13T10:50:37.546Z,3.22
2018-09-13T10:55:42.165Z,3.30
2018-09-13T11:00:46.671Z,3.27
2018-09-13T11:05:52.582Z,3.77
2018-09-13T11:10:57.480Z,3.85
2018-09-13T11:16:01.959Z,3.95
2018-09-13T11:21:06.700Z,3.90
2018-09-13T11:26:11.616Z,7.00
2018-09-13T11:31:16.444Z,3.87
2018-09-13T11:36:21.693Z,3.72
2018-09-13T11:41:27.320Z,3.45
2018-09-13T11:46:33.315Z,4.53
2018-09-13T11:51:38.751Z,3.67
2018-09-13T11:56:43.614Z,4.03
2018-09-13T12:01:48.080Z,3.40
2018-09-13T12:06:52.575Z,3.45
2018-09-13T12:11:57.143Z,3.90
2018-09-13T12:17:01.646Z,4.33
2018-09-13T12:22:06.492Z,4.40
2018-09-13T12:27:11.121Z,4.58
2018-09-13T12:32:17.164Z,4.50
2018-09-13T12:37:21.534Z,4.80
2018-09-13T12:42:25.913Z,4.92
2018-09-13T12:47:30.427Z,3.95
2018-09-13T12:52:34.943Z,4.67
2018-09-13T12:57:39.769Z,4.03
2018-09-13T13:02:45.533Z,4.55
2018-09-13T13:07:50.039Z,4.00
2018-09-13T13:12:55.358Z,4.65
2018-09-13T13:18:01.900Z,4.67
2018-09-13T13:23:06.440Z,3.05
2018-09-13T13:28:11.552Z,3.98
2018-09-13T13:33:16.488Z,3.30
2018-09-13T13:38:21.026Z,3.12
2018-09-13T13:43:25.447Z,3.90
2018-09-13T13:48:30.641Z,3.62
2018-09-13T13:53:35.412Z,3.77
2018-09-13T13:58:40.050Z,2.00
2018-09-13T14:03:44.373Z,1.98
2018-09-13T14:08:48.921Z,1.85
2018-09-13T14:13:53.451Z,1.82
2018-09-13T14:18:58.169Z,1.77
2018-09-13T14:24:03.951Z,1.87
2018-09-13T14:29:08.499Z,1.90
2018-09-13T14:34:15.073Z,2.90
2018-09-13T14:39:20.294Z,1.55
2018-09-13T14:44:24.708Z,1.90
2018-09-13T14:49:30.051Z,2.00
2018-09-13T14:54:34.412Z,1.77
2018-09-13T14:59:38.828Z,1.98
2018-09-13T15:04:43.259Z,2.30
2018-09-13T15:09:47.666Z,2.22
2018-09-13T15:14:52.202Z,3.98
2018-09-13T15:19:56.649Z,2.60
2018-09-13T15:25:00.898Z,2.58
2018-09-13T15:30:06.337Z,2.90
2018-09-13T15:35:11.050Z,2.62
2018-09-13T15:40:15.458Z,2.80
2018-09-13T15:45:20.262Z,2.65
2018-09-13T15:50:26.083Z,3.00
2018-09-13T15:55:30.667Z,3.00
2018-09-13T16:00:35.127Z,2.58
2018-09-13T16:05:40.105Z,2.62
2018-09-13T16:10:44.410Z,3.10
2018-09-13T16:15:49.007Z,3.05
2018-09-13T16:20:53.415Z,3.25
2018-09-13T16:25:57.983Z,3.33
2018-09-13T16:31:02.218Z,3.27
2018-09-13T16:36:08.485Z,3.05
2018-09-13T16:41:18.056Z,3.17
2018-09-13T16:46:28.325Z,3.40
2018-09-13T16:51:33.115Z,3.12
2018-09-13T16:56:37.467Z,3.17
2018-09-13T17:01:41.901Z,3.00
2018-09-13T17:06:46.417Z,2.80
2018-09-13T17:11:51.202Z,3.30
2018-09-13T17:16:55.489Z,3.65
2018-09-13T17:22:00.226Z,3.40
2018-09-13T17:27:05.499Z,3.10
2018-09-13T17:32:09.947Z,2.80
2018-09-13T17:37:14.405Z,2.77
2018-09-13T17:42:18.997Z,3.22
2018-09-13T17:47:23.910Z,3.17
2018-09-13T17:52:28.450Z,3.17
2018-09-13T17:57:32.955Z,3.62
2018-09-13T18:02:37.633Z,3.50
2018-09-13T18:07:42.420Z,3.55
2018-09-13T18:12:46.932Z,3.22
2018-09-13T18:17:51.960Z,3.60
2018-09-13T18:22:56.355Z,4.15
2018-09-13T18:28:00.993Z,4.35
2018-09-13T18:33:05.920Z,4.97
2018-09-13T18:38:11.082Z,5.28
2018-09-13T18:43:16.337Z,5.97
2018-09-13T18:48:20.639Z,6.10
2018-09-13T18:53:25.783Z,6.05
2018-09-13T18:58:30.364Z,6.97
2018-09-13T19:03:34.592Z,6.62
2018-09-13T19:08:39.349Z,6.05
2018-09-13T19:13:43.930Z,6.33
2018-09-13T19:18:48.769Z,7.05
2018-09-13T19:23:54.108Z,7.37
2018-09-13T19:28:59.183Z,6.67
2018-09-13T19:34:04.365Z,7.45
2018-09-13T19:39:11.336Z,6.95
2018-09-13T19:44:16.184Z,6.53
2018-09-13T19:49:20.772Z,5.67
2018-09-13T19:54:26.471Z,5.70
2018-09-13T19:59:31.054Z,4.97
2018-09-13T20:04:35.806Z,4.90
2018-09-13T20:09:39.966Z,5.47
2018-09-13T20:14:44.342Z,5.53
2018-09-13T20:19:49.503Z,4.83
2018-09-13T20:24:54.237Z,4.42
2018-09-13T20:29:58.863Z,4.67
2018-09-13T20:35:03.314Z,4.25
2018-09-13T20:40:08.137Z,4.45
2018-09-13T20:45:17.597Z,4.30
2018-09-13T20:50:23.846Z,4.25
2018-09-13T20:55:28.352Z,3.85
2018-09-13T21:00:32.879Z,4.72
2018-09-13T21:05:37.437Z,4.87
2018-09-13T21:10:41.819Z,5.58
2018-09-13T21:15:46.291Z,4.80
2018-09-13T21:20:50.679Z,5.33
2018-09-13T21:25:55.305Z,5.58
2018-09-13T21:31:00.006Z,4.72
2018-09-13T21:36:04.903Z,5.22
2018-09-13T21:41:09.510Z,5.22
2018-09-13T21:46:14.503Z,4.25
2018-09-13T21:51:19.127Z,3.87
2018-09-13T21:56:23.656Z,4.17
2018-09-13T22:01:28.749Z,5.03
2018-09-13T22:06:33.326Z,4.45
2018-09-13T22:11:39.205Z,4.03
2018-09-13T22:16:43.577Z,3.87
2018-09-13T22:21:48.159Z,3.85
2018-09-13T22:26:52.807Z,3.77
2018-09-13T22:31:58.042Z,2.92
2018-09-13T22:37:03.681Z,3.67
2018-09-13T22:42:08.292Z,3.47
2018-09-13T22:47:13.200Z,4.62
2018-09-13T22:52:18.659Z,4.00
2018-09-13T22:57:23.821Z,4.20
2018-09-13T23:02:28.307Z,4.47
2018-09-13T23:07:32.963Z,4.40
2018-09-13T23:12:38.064Z,4.95
2018-09-13T23:17:42.813Z,5.12
2018-09-13T23:22:47.333Z,4.72
2018-09-13T23:27:52.068Z,5.70
2018-09-13T23:32:56.860Z,4.97
2018-09-13T23:38:01.771Z,4.55
2018-09-13T23:43:07.251Z,4.28
2018-09-13T23:48:11.841Z,4.03
2018-09-13T23:53:16.429Z,4.62
2018-09-13T23:58:20.920Z,4.42
